Caldwell, ID

4:01 PM MDT on August 21, 2017 (GMT -0600)
Caldwell Industrial

Weather History for KEUL - November, 2012

Change the Weather History Date:

Thursday, November 8, 2012

  Actual Average (KBOI) Record (KBOI)
Temperature  
Mean Temperature 42 °F -  
Max Temperature 48 °F 50 °F 71 °F (1967)
Min Temperature 35 °F 32 °F 16 °F (1948)
Degree Days  
Heating Degree Days 24    
Moisture  
Dew Point 29 °F    
Average Humidity 63    
Maximum Humidity 75    
Minimum Humidity 53    
Precipitation  
Precipitation 0.00 in - - ()
Sea Level Pressure  
Sea Level Pressure 29.69 in    
Wind  
Wind Speed 7 mph (NW)    
Max Wind Speed 16 mph    
Max Gust Speed 22 mph    
Visibility 10 miles    
Events      
Averages and records for this station are not official NWS values.
T = Trace of Precipitation, MM = Missing Value Source: NWS Daily Summary

Daily Weather History Graph

Daily Weather History Graph

Search for Another Location

Airport or City:

Trip Planner

Search our weather history database for the weather conditions in past years. The results will help you decide how hot, cold, wet, or windy it might be!

Date:

Astronomy

Nov. 08, 2012 Rise Set
Actual Time 7:32 AM MST 5:27 PM MST
Civil Twilight 7:01 AM MST 5:58 PM MST
Nautical Twilight 6:27 AM MST 6:32 PM MST
Astronomical Twilight 5:53 AM MST 7:06 PM MST
Moon 1:21 AM MST (11/8) 2:20 PM MST (11/8)
Length of Visible Light 10h 56m
Length of Day
9h 55m
Waning Crescent, 32% of the Moon is Illuminated
Nov 8
Waning Crescent
Nov 13
New
Nov 20
First Quarter
Nov 28
Full
Dec 6
Last Quarter

Hourly Weather History & Observations

Time (MST) Temp. Windchill Dew Point Humidity Pressure Visibility Wind Dir Wind Speed Gust Speed Precip Events Conditions
12:15 AM 42.8 °F 38.0 °F 26.6 °F 53% 29.87 in 10.0 mi West 8.1 mph - N/A   Mostly Cloudy
12:35 AM 41.0 °F 35.8 °F 26.6 °F 57% 29.86 in 10.0 mi WNW 8.1 mph - N/A   Mostly Cloudy
12:55 AM 41.0 °F 35.2 °F 26.6 °F 57% 29.84 in 10.0 mi WNW 9.2 mph - N/A   Mostly Cloudy
1:15 AM 41.0 °F 35.8 °F 26.6 °F 57% 29.84 in 10.0 mi WNW 8.1 mph - N/A   Mostly Cloudy
1:35 AM 41.0 °F 35.2 °F 26.6 °F 57% 29.83 in 10.0 mi WNW 9.2 mph - N/A   Overcast
1:55 AM 39.2 °F 34.2 °F 26.6 °F 61% 29.82 in 10.0 mi WNW 6.9 mph - N/A   Overcast
2:15 AM 39.2 °F 35.0 °F 26.6 °F 61% 29.81 in 10.0 mi WNW 5.8 mph - N/A   Overcast
2:35 AM 39.2 °F 35.0 °F 26.6 °F 61% 29.80 in 10.0 mi West 5.8 mph - N/A   Mostly Cloudy
2:55 AM 39.2 °F 35.0 °F 26.6 °F 61% 29.80 in 10.0 mi West 5.8 mph - N/A   Partly Cloudy
3:15 AM 39.2 °F 37.0 °F 26.6 °F 61% 29.78 in 10.0 mi West 3.5 mph - N/A   Clear
3:35 AM 39.2 °F 37.0 °F 26.6 °F 61% 29.78 in 10.0 mi West 3.5 mph - N/A   Scattered Clouds
3:55 AM 39.2 °F - 26.6 °F 61% 29.77 in 10.0 mi Calm Calm - N/A   Scattered Clouds
4:15 AM 39.2 °F - 26.6 °F 61% 29.76 in 10.0 mi Calm Calm - N/A   Scattered Clouds
4:35 AM 37.4 °F - 26.6 °F 65% 29.75 in 10.0 mi Calm Calm - N/A   Overcast
4:55 AM 37.4 °F - 26.6 °F 65% 29.74 in 10.0 mi Calm Calm - N/A   Scattered Clouds
5:15 AM 37.4 °F - 26.6 °F 65% 29.73 in 10.0 mi Calm Calm - N/A   Partly Cloudy
5:35 AM 37.4 °F - 26.6 °F 65% 29.72 in 10.0 mi Calm Calm - N/A   Mostly Cloudy
5:55 AM 37.4 °F 34.9 °F 26.6 °F 65% 29.71 in 10.0 mi South 3.5 mph - N/A   Scattered Clouds
6:15 AM 37.4 °F 34.9 °F 26.6 °F 65% 29.71 in 10.0 mi WSW 3.5 mph - N/A   Partly Cloudy
6:35 AM 37.4 °F 34.9 °F 26.6 °F 65% 29.71 in 10.0 mi WSW 3.5 mph - N/A   Partly Cloudy
6:55 AM 37.4 °F - 26.6 °F 65% 29.70 in 10.0 mi Calm Calm - N/A   Clear
7:15 AM 37.4 °F - 26.6 °F 65% 29.70 in 10.0 mi Calm Calm - N/A   Clear
7:35 AM 35.6 °F 31.7 °F 26.6 °F 70% 29.69 in 10.0 mi ENE 4.6 mph - N/A   Clear
7:55 AM 35.6 °F 31.7 °F 26.6 °F 70% 29.70 in 10.0 mi East 4.6 mph - N/A   Clear
8:15 AM 35.6 °F 29.2 °F 26.6 °F 70% 29.68 in 10.0 mi East 8.1 mph - N/A   Clear
8:35 AM 37.4 °F 34.9 °F 26.6 °F 65% 29.69 in 10.0 mi SE 3.5 mph - N/A   Clear
8:55 AM 37.4 °F 32.1 °F 26.6 °F 65% 29.70 in 10.0 mi SE 6.9 mph - N/A   Partly Cloudy
9:15 AM 37.4 °F 30.8 °F 28.4 °F 70% 29.71 in 10.0 mi West 9.2 mph - N/A   Mostly Cloudy
9:35 AM 39.2 °F 34.2 °F 28.4 °F 65% 29.70 in 10.0 mi NW 6.9 mph - N/A   Scattered Clouds
9:55 AM 42.8 °F 37.0 °F 28.4 °F 57% 29.70 in 10.0 mi NW 10.4 mph - N/A   Clear
10:15 AM 42.8 °F 38.0 °F 30.2 °F 61% 29.69 in 10.0 mi NNW 8.1 mph - N/A   Clear
10:35 AM 42.8 °F 38.0 °F 30.2 °F 61% 29.68 in 10.0 mi North 8.1 mph - N/A   Scattered Clouds
10:55 AM 44.6 °F 40.2 °F 30.2 °F 57% 29.67 in 10.0 mi North 8.1 mph - N/A   Clear
11:15 AM 46.4 °F 45.2 °F 32.0 °F 57% 29.67 in 10.0 mi North 3.5 mph - N/A   Clear
11:35 AM 44.6 °F 40.2 °F 30.2 °F 57% 29.66 in 10.0 mi NNW 8.1 mph - N/A   Clear
11:55 AM 46.4 °F 41.5 °F 30.2 °F 53% 29.66 in 10.0 mi WNW 10.4 mph - N/A   Clear
12:15 PM 46.4 °F 41.1 °F 32.0 °F 57% 29.64 in 10.0 mi NNW 11.5 mph - N/A   Clear
12:35 PM 46.4 °F 41.1 °F 32.0 °F 57% 29.63 in 9.0 mi WNW 11.5 mph - N/A   Clear
12:55 PM 48.2 °F - 33.8 °F 58% 29.63 in 10.0 mi NW 6.9 mph - N/A   Clear
1:15 PM 48.2 °F - 32.0 °F 54% 29.63 in 10.0 mi WNW 10.4 mph - N/A   Clear
1:35 PM 48.2 °F - 33.8 °F 58% 29.62 in 10.0 mi NW 11.5 mph - N/A   Clear
1:55 PM 48.2 °F - 33.8 °F 58% 29.62 in 10.0 mi NW 12.7 mph - N/A   Clear
2:15 PM 48.2 °F - 32.0 °F 54% 29.62 in 10.0 mi NW 13.8 mph - N/A   Clear
2:35 PM 48.2 °F - 32.0 °F 54% 29.63 in 10.0 mi WNW 13.8 mph - N/A   Clear
2:55 PM 48.2 °F - 33.8 °F 58% 29.63 in 10.0 mi NNW 16.1 mph 19.6 mph N/A   Clear
3:15 PM 48.2 °F - 33.8 °F 58% 29.62 in 10.0 mi NNW 16.1 mph 21.9 mph N/A   Clear
3:35 PM 46.4 °F 41.1 °F 32.0 °F 57% 29.63 in 10.0 mi NNW 11.5 mph 16.1 mph N/A   Partly Cloudy
3:55 PM 46.4 °F 41.9 °F 32.0 °F 57% 29.64 in 10.0 mi NNW 9.2 mph - N/A   Partly Cloudy
4:15 PM 46.4 °F 41.5 °F 30.2 °F 53% 29.65 in 10.0 mi NNW 10.4 mph - N/A   Clear
4:35 PM 46.4 °F 41.9 °F 30.2 °F 53% 29.65 in 10.0 mi NW 9.2 mph - N/A   Clear
4:55 PM 44.6 °F 38.8 °F 30.2 °F 57% 29.65 in 10.0 mi NW 11.5 mph - N/A   Clear
5:15 PM 44.6 °F 39.2 °F 30.2 °F 57% 29.64 in 10.0 mi NW 10.4 mph - N/A   Clear
5:35 PM 42.8 °F 38.6 °F 30.2 °F 61% 29.64 in 10.0 mi NNW 6.9 mph - N/A   Clear
5:55 PM 42.8 °F 37.5 °F 30.2 °F 61% 29.64 in 10.0 mi NNW 9.2 mph - N/A   Clear
6:15 PM 41.0 °F 38.0 °F 28.4 °F 61% 29.65 in 10.0 mi NNE 4.6 mph - N/A   Clear
6:35 PM 39.2 °F 35.0 °F 28.4 °F 65% 29.65 in 10.0 mi NNE 5.8 mph - N/A   Clear
6:55 PM 37.4 °F 33.8 °F 28.4 °F 70% 29.65 in 10.0 mi NNE 4.6 mph - N/A   Clear
7:15 PM 37.4 °F 33.8 °F 28.4 °F 70% 29.66 in 10.0 mi NNW 4.6 mph - N/A   Clear
7:35 PM 37.4 °F 32.8 °F 28.4 °F 70% 29.66 in 10.0 mi NNW 5.8 mph - N/A   Clear
7:55 PM 39.2 °F 35.0 °F 28.4 °F 65% 29.66 in 10.0 mi NNW 5.8 mph - N/A   Clear
8:15 PM 37.4 °F 33.8 °F 28.4 °F 70% 29.66 in 10.0 mi NNW 4.6 mph - N/A   Clear
8:35 PM 37.4 °F 32.8 °F 28.4 °F 70% 29.67 in 10.0 mi WNW 5.8 mph - N/A   Clear
8:55 PM 35.6 °F 30.7 °F 28.4 °F 75% 29.65 in 10.0 mi NNW 5.8 mph - N/A   Clear
9:15 PM 35.6 °F - 26.6 °F 70% 29.66 in 10.0 mi Calm Calm - N/A   Clear
9:35 PM 35.6 °F 30.7 °F 28.4 °F 75% 29.67 in 10.0 mi West 5.8 mph - N/A   Clear
9:55 PM 35.6 °F 29.2 °F 28.4 °F 75% 29.67 in 10.0 mi West 8.1 mph - N/A   Clear
10:15 PM 35.6 °F 29.9 °F 26.6 °F 70% 29.68 in 10.0 mi West 6.9 mph - N/A   Scattered Clouds
10:35 PM 35.6 °F 28.6 °F 26.6 °F 70% 29.68 in 10.0 mi West 9.2 mph - N/A   Overcast
10:55 PM 35.6 °F 28.6 °F 26.6 °F 70% 29.68 in 10.0 mi West 9.2 mph - N/A   Overcast
11:15 PM 35.6 °F 28.0 °F 26.6 °F 70% 29.67 in 10.0 mi West 10.4 mph - N/A   Overcast
11:35 PM 35.6 °F 28.6 °F 26.6 °F 70% 29.68 in 10.0 mi West 9.2 mph - N/A   Overcast
11:55 PM 35.6 °F 29.9 °F 26.6 °F 70% 29.68 in 10.0 mi West 6.9 mph - N/A   Mostly Cloudy